This is the latest recevied weather packets stored in our database for station/object KO6MEX-13. If no packets are shown the sender has not sent any weather packets the latest 10 day(s).
| Time | Temp. | Humidity | Pressure | Rain* | Wind** | Luminosity | Snow |
|---|---|---|---|---|---|---|---|
| 1777665249 | 17.78° C | 69% | 1018.2 hPa | 0 mm | - | 696 W/m² | - |
| 1777664944 | 18.33° C | 66% | 1018.3 hPa | 0 mm | - | 737 W/m² | - |
| 1777664641 | 17.78° C | 67% | 1018.4 hPa | 0 mm | - | 739 W/m² | - |
| 1777664336 | 17.22° C | 70% | 1018.3 hPa | 0 mm | - | 569 W/m² | - |
| 1777664035 | 17.78° C | 68% | 1018.3 hPa | 0 mm | - | 751 W/m² | - |
| 1777663732 | 17.22° C | 71% | 1018.6 hPa | 0 mm | - | 785 W/m² | - |
| 1777663429 | 17.22° C | 71% | 1018.5 hPa | 0 mm | - | 333 W/m² | - |
| 1777663126 | 16.67° C | 72% | 1018.4 hPa | 0 mm | - | 333 W/m² | - |
| 1777662823 | 16.67° C | 72% | 1018.8 hPa | 0 mm | - | 367 W/m² | - |
| 1777662520 | 16.67° C | 73% | 1018.7 hPa | 0 mm | - | 384 W/m² | - |
| 1777662216 | 16.11° C | 74% | 1018.7 hPa | 0 mm | - | 327 W/m² | - |
| 1777661911 | 16.11° C | 75% | 1018.9 hPa | 0 mm | - | 321 W/m² | - |
| 1777661608 | 16.11° C | 74% | 1018.9 hPa | 0 mm | - | 302 W/m² | - |
| 1777661304 | 15.56° C | 76% | 1019 hPa | 0 mm | - | 333 W/m² | - |
| 1777661000 | 15.56° C | 75% | 1018.9 hPa | 0 mm | - | 274 W/m² | - |
| 1777660695 | 15.56° C | 75% | 1018.8 hPa | 0 mm | - | 262 W/m² | - |
| 1777660393 | 15.56° C | 76% | 1019 hPa | 0 mm | - | 293 W/m² | - |
| 1777660089 | 15.56° C | 77% | 1019.1 hPa | 0 mm | - | 227 W/m² | - |
| 1777659786 | 15.56° C | 76% | 1019.2 hPa | 0 mm | - | 278 W/m² | - |
| 1777659483 | 16.11° C | 76% | 1018.8 hPa | 0 mm | - | 209 W/m² | - |
| 1777659180 | 16.67° C | 73% | 1019 hPa | 0 mm | - | 258 W/m² | - |
| 1777658877 | 16.11° C | 74% | 1018.9 hPa | 0 mm | - | 669 W/m² | - |
| 1777658573 | 16.11° C | 74% | 1018.9 hPa | 0 mm | - | 282 W/m² | - |
| 1777658270 | 15.56° C | 77% | 1018.7 hPa | 0 mm | - | 269 W/m² | - |
| 1777657967 | 15.56° C | 76% | 1019 hPa | 0 mm | - | 262 W/m² | - |
* Rain latest hour (hover to see other rain measurements)
** Current wind speed in m/s (hover to see current wind gust speed)